Time;durP1;ratioP1;P1;durP2;ratioP2;P2;SDS_P1;SDS_P2;PMS_P1;PMS_P2;Temp;Humidity;BMP_temperature;BMP_pressure;BME280_temperature;BME280_humidity;BME280_pressure;Samples;Min_cycle;Max_cycle;Signal;HPM_P1;HPM_P2
2024/02/14 00:02:11;;;;;;;10.10;4.22;;;4.60;99.90;;;;;;4938186;29;20067;-78
2024/02/14 00:04:41;;;;;;;9.77;3.65;;;4.30;99.90;;;;;;4953071;29;20046;-78
2024/02/14 00:07:11;;;;;;;10.43;4.85;;;4.30;99.90;;;;;;4935968;29;20099;-78
2024/02/14 00:09:40;;;;;;;12.60;5.13;;;4.40;99.90;;;;;;4954203;29;20043;-78
2024/02/14 00:12:11;;;;;;;9.68;3.92;;;4.10;99.90;;;;;;4937056;29;20106;-78
2024/02/14 00:14:42;;;;;;;9.20;3.90;;;3.50;99.90;;;;;;4929294;29;20076;-78
2024/02/14 00:17:12;;;;;;;10.70;4.30;;;4.30;99.90;;;;;;4945846;29;20051;-78
2024/02/14 00:19:41;;;;;;;9.93;3.95;;;4.20;99.90;;;;;;4924783;29;20076;-78
2024/02/14 00:22:12;;;;;;;7.88;3.70;;;4.30;99.90;;;;;;4943760;29;20036;-78
2024/02/14 00:24:41;;;;;;;8.95;3.50;;;4.20;99.90;;;;;;4935275;29;20059;-78
2024/02/14 00:27:10;;;;;;;9.20;3.60;;;4.00;99.90;;;;;;4939327;29;20031;-79
2024/02/14 00:29:39;;;;;;;7.63;3.25;;;4.10;99.90;;;;;;4937087;29;20060;-78
2024/02/14 00:32:08;;;;;;;9.00;3.95;;;4.10;99.90;;;;;;4932883;29;20054;-79
2024/02/14 00:34:37;;;;;;;12.15;4.38;;;3.90;99.90;;;;;;4944471;29;20058;-78
2024/02/14 00:37:06;;;;;;;9.65;3.70;;;4.20;99.90;;;;;;4945307;29;20051;-79
2024/02/14 00:39:37;;;;;;;9.73;4.32;;;3.90;99.90;;;;;;4938636;29;20044;-79
2024/02/14 00:42:06;;;;;;;9.20;3.95;;;4.10;99.90;;;;;;4953340;29;20050;-79
2024/02/14 00:44:35;;;;;;;11.02;3.72;;;4.20;99.90;;;;;;4933265;29;20042;-79
2024/02/14 00:47:04;;;;;;;9.32;3.33;;;3.80;99.90;;;;;;4936998;29;20040;-79
2024/02/14 00:49:35;;;;;;;8.95;3.50;;;3.90;99.90;;;;;;4938823;29;20040;-79
2024/02/14 00:52:06;;;;;;;12.57;3.58;;;3.40;99.90;;;;;;4955749;29;20044;-79
2024/02/14 00:54:37;;;;;;;9.90;3.60;;;4.10;99.90;;;;;;4933303;29;20063;-79
2024/02/14 00:57:06;;;;;;;9.30;2.97;;;4.30;99.90;;;;;;4953059;29;20072;-79
2024/02/14 00:59:38;;;;;;;8.05;3.67;;;4.00;99.90;;;;;;4954392;29;20071;-79
2024/02/14 01:02:08;;;;;;;8.32;3.03;;;5.50;99.90;;;;;;4936506;29;20445;-79
2024/02/14 01:04:37;;;;;;;9.65;3.13;;;4.00;99.90;;;;;;4950340;29;20038;-79
2024/02/14 01:07:06;;;;;;;6.72;2.92;;;3.40;99.90;;;;;;4936322;29;20047;-79
2024/02/14 01:09:37;;;;;;;21.17;4.80;;;4.00;99.90;;;;;;4952713;29;20064;-79
2024/02/14 01:12:06;;;;;;;11.70;3.70;;;4.00;99.90;;;;;;4956305;29;20043;-78
2024/02/14 01:14:35;;;;;;;7.50;3.10;;;2.60;99.90;;;;;;4957411;29;20035;-79
2024/02/14 01:17:05;;;;;;;8.27;2.88;;;3.70;99.90;;;;;;4945885;29;20047;-79
2024/02/14 01:19:35;;;;;;;9.98;3.78;;;4.10;99.90;;;;;;4945529;29;20576;-79
2024/02/14 01:22:04;;;;;;;7.72;3.47;;;3.80;99.90;;;;;;4936468;29;20115;-79
2024/02/14 01:24:33;;;;;;;9.35;3.83;;;3.90;99.90;;;;;;4940266;29;20043;-79
2024/02/14 01:27:05;;;;;;;7.65;3.20;;;3.80;99.90;;;;;;4938459;29;20083;-79
2024/02/14 01:29:34;;;;;;;6.93;2.60;;;3.30;99.90;;;;;;4957908;29;20076;-79
2024/02/14 01:32:04;;;;;;;10.00;3.85;;;3.80;99.90;;;;;;4952704;29;20039;-79
2024/02/14 01:34:33;;;;;;;6.82;2.90;;;3.70;99.90;;;;;;4953629;29;20040;-79
2024/02/14 01:37:04;;;;;;;7.68;3.28;;;3.70;99.90;;;;;;4955470;29;20047;-79
2024/02/14 01:39:33;;;;;;;8.88;2.75;;;3.50;99.90;;;;;;4938673;29;20048;-79
2024/02/14 01:42:07;;;;;;;8.65;3.13;;;2.80;99.90;;;;;;4935310;29;20098;-79
2024/02/14 01:44:36;;;;;;;8.48;2.88;;;3.50;99.90;;;;;;4936226;29;20091;-79
2024/02/14 01:47:06;;;;;;;10.23;3.35;;;3.60;99.90;;;;;;4954345;29;20044;-80
2024/02/14 01:49:36;;;;;;;8.93;3.47;;;3.60;99.90;;;;;;4937081;29;20115;-80
2024/02/14 01:52:07;;;;;;;9.25;3.47;;;3.60;99.90;;;;;;4939585;29;20135;-79
2024/02/14 01:54:37;;;;;;;8.27;3.47;;;3.50;99.90;;;;;;4943098;29;20032;-80
2024/02/14 01:57:10;;;;;;;10.40;3.78;;;3.50;99.90;;;;;;4956026;29;20103;-79
2024/02/14 01:59:39;;;;;;;8.75;3.38;;;3.30;99.90;;;;;;4949133;29;20075;-77
2024/02/14 02:02:09;;;;;;;9.52;3.78;;;3.40;99.90;;;;;;4934033;29;20044;-78
2024/02/14 02:04:39;;;;;;;9.07;3.45;;;3.40;99.90;;;;;;4916377;29;20043;-78
2024/02/14 02:07:08;;;;;;;13.23;4.15;;;3.40;99.90;;;;;;4933362;29;20100;-78
2024/02/14 02:09:37;;;;;;;15.27;4.13;;;3.30;99.90;;;;;;4936807;29;20072;-78
2024/02/14 02:12:07;;;;;;;9.98;3.80;;;3.30;99.90;;;;;;4935171;29;20052;-78
2024/02/14 02:14:37;;;;;;;11.13;4.18;;;3.20;99.90;;;;;;4932665;29;20051;-78
2024/02/14 02:17:07;;;;;;;10.65;3.92;;;2.10;99.90;;;;;;4932784;29;20044;-78
2024/02/14 02:19:36;;;;;;;11.98;3.95;;;3.20;99.90;;;;;;4934939;29;20043;-79
2024/02/14 02:22:06;;;;;;;13.55;5.55;;;2.20;99.90;;;;;;4950392;29;20040;-78
2024/02/14 02:24:36;;;;;;;11.82;4.28;;;3.20;99.90;;;;;;4934419;29;20058;-78
2024/02/14 02:27:06;;;;;;;14.63;5.05;;;3.10;99.90;;;;;;4949287;29;20050;-78
2024/02/14 02:29:37;;;;;;;16.42;5.95;;;3.10;99.90;;;;;;4932943;29;20055;-79
2024/02/14 02:32:09;;;;;;;14.57;5.07;;;3.10;99.90;;;;;;4951517;29;20035;-79
2024/02/14 02:34:40;;;;;;;14.90;5.25;;;3.10;99.90;;;;;;4949287;29;20119;-78
2024/02/14 02:37:09;;;;;;;13.18;4.35;;;3.10;99.90;;;;;;4933146;29;20110;-78
2024/02/14 02:39:40;;;;;;;11.85;4.68;;;3.70;99.90;;;;;;4949403;29;20056;-79
2024/02/14 02:42:10;;;;;;;10.20;4.65;;;3.00;99.90;;;;;;4930979;29;20043;-79
2024/02/14 02:44:40;;;;;;;11.90;4.45;;;2.90;99.90;;;;;;4945153;29;20128;-78
2024/02/14 02:47:10;;;;;;;11.32;4.85;;;3.60;99.90;;;;;;4933402;29;20239;-79
2024/02/14 02:49:41;;;;;;;11.90;4.78;;;2.90;99.90;;;;;;4932159;29;20115;-78
2024/02/14 02:52:10;;;;;;;11.82;4.80;;;2.80;99.90;;;;;;4952519;29;20039;-79
2024/02/14 02:54:43;;;;;;;13.30;5.18;;;2.80;99.90;;;;;;4931744;29;20039;-78
2024/02/14 02:57:12;;;;;;;12.65;4.32;;;2.80;99.90;;;;;;4950764;29;20068;-78
2024/02/14 02:59:44;;;;;;;12.57;5.88;;;2.90;99.90;;;;;;4933111;29;20064;-79
2024/02/14 03:02:13;;;;;;;13.98;4.60;;;2.80;99.90;;;;;;4930698;29;20056;-78
2024/02/14 03:04:42;;;;;;;14.25;4.55;;;2.90;99.90;;;;;;4937072;29;20076;-79
2024/02/14 03:07:20;;;;;;;10.80;4.25;;;2.90;99.90;;;;;;4939829;29;20180;-79
2024/02/14 03:09:51;;;;;;;8.93;3.90;;;2.80;99.90;;;;;;4954047;29;20052;-79
2024/02/14 03:12:22;;;;;;;14.05;4.97;;;2.80;99.90;;;;;;4956165;29;20043;-79
2024/02/14 03:14:51;;;;;;;9.60;4.18;;;3.10;99.90;;;;;;4936646;29;20043;-79
2024/02/14 03:17:20;;;;;;;9.40;4.07;;;2.90;99.90;;;;;;4937558;29;20058;-79
2024/02/14 03:19:51;;;;;;;13.50;4.53;;;2.80;99.90;;;;;;4956076;29;20058;-79
2024/02/14 03:22:21;;;;;;;10.45;4.90;;;2.60;99.90;;;;;;4939560;29;20082;-79
2024/02/14 03:24:51;;;;;;;11.55;4.30;;;2.60;99.90;;;;;;4937680;29;20044;-79
2024/02/14 03:27:23;;;;;;;16.50;5.45;;;3.10;99.90;;;;;;4952564;29;20039;-79
2024/02/14 03:29:52;;;;;;;9.18;4.30;;;2.60;99.90;;;;;;4935810;29;20051;-79
2024/02/14 03:32:23;;;;;;;9.40;3.42;;;2.60;99.90;;;;;;4954885;29;20056;-79
2024/02/14 03:34:52;;;;;;;11.52;4.10;;;2.60;99.90;;;;;;4934369;29;20055;-79
2024/02/14 03:37:21;;;;;;;12.43;4.72;;;1.50;99.90;;;;;;4937058;29;20059;-79
2024/02/14 03:39:52;;;;;;;15.35;5.18;;;2.60;99.90;;;;;;4938722;29;20172;-79
2024/02/14 03:42:26;;;;;;;12.02;4.57;;;2.70;99.90;;;;;;4938272;29;20131;-79
2024/02/14 03:45:02;;;;;;;10.85;4.53;;;2.70;99.90;;;;;;4955214;29;20031;-79
2024/02/14 03:47:32;;;;;;;13.40;5.32;;;2.80;99.90;;;;;;4951901;29;20035;-79
2024/02/14 03:50:02;;;;;;;15.10;4.70;;;2.60;99.90;;;;;;4956406;29;20047;-79
2024/02/14 03:52:32;;;;;;;12.07;4.45;;;2.60;99.90;;;;;;4941102;29;20067;-79
2024/02/14 03:55:03;;;;;;;13.48;5.32;;;2.60;99.90;;;;;;4951156;29;20075;-79
2024/02/14 03:57:35;;;;;;;11.95;5.07;;;2.60;99.90;;;;;;4958376;29;20048;-79
2024/02/14 04:00:10;;;;;;;15.18;5.70;;;2.50;99.90;;;;;;4954010;29;20058;-78
2024/02/14 04:02:40;;;;;;;13.85;4.45;;;2.60;99.90;;;;;;4952152;29;20040;-78
2024/02/14 04:05:09;;;;;;;11.90;4.55;;;2.40;99.90;;;;;;4932860;29;20068;-79
2024/02/14 04:07:38;;;;;;;16.10;6.65;;;2.20;99.90;;;;;;4935778;29;20079;-79
2024/02/14 04:10:09;;;;;;;15.98;4.78;;;2.50;99.90;;;;;;4935121;29;20051;-78
2024/02/14 04:12:38;;;;;;;15.02;5.32;;;2.50;99.90;;;;;;4952119;29;20039;-78
2024/02/14 04:15:08;;;;;;;13.70;5.35;;;2.40;99.90;;;;;;4931598;29;20044;-78
2024/02/14 04:17:37;;;;;;;12.88;5.00;;;2.40;99.90;;;;;;4949724;29;20051;-79
2024/02/14 04:20:07;;;;;;;14.13;5.43;;;2.40;99.90;;;;;;4930828;29;20070;-78
2024/02/14 04:22:35;;;;;;;13.60;4.97;;;2.40;99.90;;;;;;4932634;29;20072;-78
2024/02/14 04:25:05;;;;;;;14.73;4.93;;;2.40;99.90;;;;;;4946421;29;20477;-79
2024/02/14 04:27:35;;;;;;;18.30;7.13;;;2.60;99.90;;;;;;4932638;29;20075;-78
2024/02/14 04:30:05;;;;;;;16.00;5.82;;;2.30;99.90;;;;;;4940007;29;20044;-79
2024/02/14 04:32:34;;;;;;;16.02;6.10;;;2.30;99.90;;;;;;4924179;29;20047;-78
2024/02/14 04:35:03;;;;;;;15.13;6.53;;;2.20;99.90;;;;;;4934169;29;20047;-78
2024/02/14 04:37:33;;;;;;;18.90;7.45;;;2.20;99.90;;;;;;4935754;29;20052;-79
2024/02/14 04:40:03;;;;;;;21.10;7.88;;;2.10;99.90;;;;;;4951248;29;20052;-78
2024/02/14 04:42:33;;;;;;;21.27;7.97;;;2.20;99.90;;;;;;4953271;29;20059;-78
2024/02/14 04:45:04;;;;;;;19.00;7.35;;;2.20;99.90;;;;;;4950694;29;20107;-78
2024/02/14 04:47:32;;;;;;;22.52;9.90;;;2.10;99.90;;;;;;4951808;29;20052;-78
2024/02/14 04:50:03;;;;;;;19.35;7.80;;;2.10;99.90;;;;;;4939440;29;20138;-78
2024/02/14 04:52:32;;;;;;;20.13;7.68;;;2.10;99.90;;;;;;4953744;29;20056;-78
2024/02/14 04:55:01;;;;;;;19.55;8.05;;;2.00;99.90;;;;;;4938744;29;20040;-78
2024/02/14 04:57:31;;;;;;;20.08;7.50;;;1.00;99.90;;;;;;4938178;29;20143;-78
2024/02/14 05:00:00;;;;;;;20.13;7.10;;;2.00;99.90;;;;;;4950171;29;20056;-78
2024/02/14 05:02:30;;;;;;;15.73;6.70;;;2.00;99.90;;;;;;4953914;29;20074;-78
2024/02/14 05:04:58;;;;;;;21.05;6.60;;;1.90;99.90;;;;;;4954932;29;20083;-78
2024/02/14 05:07:27;;;;;;;18.88;6.97;;;2.10;99.90;;;;;;4938546;29;20040;-78
2024/02/14 05:09:56;;;;;;;20.17;7.15;;;2.00;99.90;;;;;;4938332;29;20067;-78
2024/02/14 05:12:25;;;;;;;27.30;8.90;;;2.30;99.90;;;;;;4933540;29;20115;-78
2024/02/14 05:14:54;;;;;;;29.05;9.48;;;1.90;99.90;;;;;;4949750;29;20063;-78
2024/02/14 05:17:23;;;;;;;25.27;10.13;;;1.90;99.90;;;;;;4932820;29;20094;-77
2024/02/14 05:19:53;;;;;;;23.13;9.20;;;1.80;99.90;;;;;;4937903;29;20071;-78
2024/02/14 05:22:22;;;;;;;25.23;9.63;;;1.90;99.90;;;;;;4952988;29;20032;-78
2024/02/14 05:24:51;;;;;;;23.38;9.32;;;0.80;99.90;;;;;;4937263;29;20036;-77
2024/02/14 05:27:20;;;;;;;21.83;8.00;;;1.80;99.90;;;;;;4951203;29;20052;-78
2024/02/14 05:29:48;;;;;;;26.95;9.13;;;1.80;99.90;;;;;;4934952;29;20053;-78
2024/02/14 05:32:17;;;;;;;25.35;8.90;;;1.80;99.90;;;;;;4929189;29;20036;-78
2024/02/14 05:34:45;;;;;;;22.30;9.05;;;1.70;99.90;;;;;;4950292;29;20048;-78
2024/02/14 05:37:16;;;;;;;27.17;9.50;;;1.80;99.90;;;;;;4940534;29;20044;-78
2024/02/14 05:39:45;;;;;;;18.67;7.05;;;1.10;99.90;;;;;;4939263;29;20043;-78
2024/02/14 05:42:15;;;;;;;22.80;8.30;;;1.70;99.90;;;;;;4930872;29;20103;-79
2024/02/14 05:44:44;;;;;;;21.10;7.32;;;1.80;99.90;;;;;;4936937;29;20056;-78
2024/02/14 05:47:14;;;;;;;25.38;8.07;;;1.80;99.90;;;;;;4951911;29;20051;-77
2024/02/14 05:49:43;;;;;;;22.77;8.00;;;1.70;99.90;;;;;;4951203;29;20115;-78
2024/02/14 05:52:12;;;;;;;24.50;8.95;;;1.70;99.90;;;;;;4937488;29;20067;-77
2024/02/14 05:54:42;;;;;;;26.30;8.32;;;1.70;99.90;;;;;;4950457;29;20111;-78
2024/02/14 05:57:11;;;;;;;24.30;9.85;;;1.70;99.90;;;;;;4948285;29;20036;-78
2024/02/14 05:59:40;;;;;;;26.55;9.00;;;1.60;99.90;;;;;;4947658;29;20058;-78
2024/02/14 06:02:09;;;;;;;24.60;8.52;;;1.60;99.90;;;;;;4935500;29;20272;-78
2024/02/14 06:04:39;;;;;;;25.75;9.43;;;1.70;99.90;;;;;;4931577;29;20099;-78
2024/02/14 06:07:10;;;;;;;21.25;7.60;;;1.60;99.90;;;;;;4952513;29;20044;-78
2024/02/14 06:09:38;;;;;;;28.02;9.63;;;1.60;99.90;;;;;;4936149;29;20393;-78
2024/02/14 06:12:08;;;;;;;26.42;9.10;;;1.70;99.90;;;;;;4939061;29;20076;-78
2024/02/14 06:14:37;;;;;;;31.98;12.02;;;1.60;99.90;;;;;;4950536;29;20086;-78
2024/02/14 06:17:06;;;;;;;31.42;10.80;;;1.70;99.90;;;;;;4950311;29;20095;-78
2024/02/14 06:19:35;;;;;;;37.63;12.75;;;1.70;99.90;;;;;;4950572;29;20052;-79
2024/02/14 06:22:08;;;;;;;30.75;11.13;;;1.70;99.90;;;;;;4931970;29;20048;-79
2024/02/14 06:24:36;;;;;;;31.25;11.32;;;1.70;99.90;;;;;;4955165;29;20063;-78
2024/02/14 06:27:05;;;;;;;25.73;10.32;;;1.80;99.90;;;;;;4951382;29;20054;-78
2024/02/14 06:29:35;;;;;;;32.35;12.15;;;1.80;99.90;;;;;;4937188;29;20043;-78
2024/02/14 06:32:04;;;;;;;31.63;11.93;;;1.80;99.90;;;;;;4933965;29;20052;-78
2024/02/14 06:34:33;;;;;;;26.60;10.88;;;1.80;99.90;;;;;;4935616;29;20051;-78
2024/02/14 06:37:02;;;;;;;33.00;12.13;;;1.80;99.90;;;;;;4935756;29;20134;-78
2024/02/14 06:39:30;;;;;;;31.20;12.70;;;1.90;99.90;;;;;;4950223;29;20019;-78
2024/02/14 06:41:59;;;;;;;27.70;10.93;;;2.00;99.90;;;;;;4945155;29;20170;-78
2024/02/14 06:44:28;;;;;;;25.23;10.50;;;2.00;99.90;;;;;;4930172;29;20054;-78
2024/02/14 06:46:58;;;;;;;26.73;10.98;;;2.10;99.90;;;;;;4927945;29;20198;-78
2024/02/14 06:49:27;;;;;;;34.35;12.25;;;1.20;99.90;;;;;;4949376;29;20078;-78
2024/02/14 06:51:55;;;;;;;35.67;13.98;;;2.30;99.90;;;;;;4938043;29;20051;-78
2024/02/14 06:54:24;;;;;;;45.40;16.08;;;2.10;99.90;;;;;;4952086;29;20039;-78
2024/02/14 06:56:53;;;;;;;46.30;16.67;;;1.30;99.90;;;;;;4937914;29;20086;-78
2024/02/14 06:59:21;;;;;;;42.65;16.98;;;3.00;99.90;;;;;;4933630;29;20040;-78
2024/02/14 07:01:51;;;;;;;41.58;15.40;;;2.90;99.90;;;;;;4947393;29;20445;-78
2024/02/14 07:04:26;;;;;;;53.17;17.65;;;2.80;99.90;;;;;;4932692;29;20161;-78
2024/02/14 07:06:55;;;;;;;42.45;16.00;;;2.50;99.90;;;;;;4948636;29;20087;-78
2024/02/14 07:09:25;;;;;;;46.97;18.02;;;2.60;99.90;;;;;;4933169;29;20043;-78
2024/02/14 07:11:56;;;;;;;43.75;16.23;;;2.60;99.90;;;;;;4933633;29;20044;-77
2024/02/14 07:14:24;;;;;;;39.30;15.75;;;2.70;99.90;;;;;;4947949;29;20080;-78
2024/02/14 07:16:53;;;;;;;34.47;13.40;;;2.80;99.90;;;;;;4946112;29;20060;-78
2024/02/14 07:19:23;;;;;;;30.98;12.38;;;2.90;99.90;;;;;;4951728;29;20071;-78
2024/02/14 07:21:52;;;;;;;29.50;11.85;;;2.90;99.90;;;;;;4950958;29;20047;-78
2024/02/14 07:24:20;;;;;;;26.13;10.20;;;3.00;99.90;;;;;;4928699;29;20060;-78
2024/02/14 07:26:49;;;;;;;24.00;9.52;;;2.70;99.90;;;;;;4952456;29;20036;-78
2024/02/14 07:29:18;;;;;;;28.77;10.38;;;3.10;99.90;;;;;;4952622;29;20035;-78
2024/02/14 07:31:47;;;;;;;25.08;9.65;;;3.20;99.90;;;;;;4947666;29;20050;-77
2024/02/14 07:34:17;;;;;;;20.17;8.95;;;3.30;99.90;;;;;;4947713;29;20461;-77
2024/02/14 07:36:47;;;;;;;21.67;8.93;;;3.30;99.90;;;;;;4932012;29;20052;-78
2024/02/14 07:39:16;;;;;;;24.58;9.23;;;3.40;99.90;;;;;;4933616;29;20047;-78
2024/02/14 07:41:46;;;;;;;19.67;7.30;;;3.50;99.90;;;;;;4939227;29;20055;-78
2024/02/14 07:44:15;;;;;;;20.70;9.02;;;3.60;99.90;;;;;;4948109;29;20036;-78
2024/02/14 07:46:44;;;;;;;22.63;7.57;;;3.70;99.90;;;;;;4943040;29;20079;-78
2024/02/14 07:49:13;;;;;;;17.85;6.65;;;3.80;99.90;;;;;;4950428;29;20100;-78
2024/02/14 07:51:41;;;;;;;18.85;8.05;;;4.60;99.90;;;;;;4946555;29;20420;-79
2024/02/14 07:54:12;;;;;;;20.60;7.55;;;3.90;99.90;;;;;;4935651;29;20070;-79
2024/02/14 07:56:43;;;;;;;16.23;6.40;;;3.90;99.90;;;;;;4952300;29;20031;-79
2024/02/14 07:59:12;;;;;;;18.70;7.72;;;3.90;99.90;;;;;;4933119;29;20043;-79
2024/02/14 08:01:43;;;;;;;17.02;6.65;;;4.20;99.90;;;;;;4949566;29;20024;-78
2024/02/14 08:04:11;;;;;;;16.70;6.68;;;4.30;99.90;;;;;;4953870;29;20051;-77
2024/02/14 08:06:40;;;;;;;38.90;13.50;;;4.40;99.90;;;;;;4926828;29;20040;-78
2024/02/14 08:09:09;;;;;;;18.20;6.65;;;4.60;99.90;;;;;;4947156;29;20068;-78
2024/02/14 08:11:39;;;;;;;18.13;7.30;;;4.60;99.90;;;;;;4926515;29;20107;-78
2024/02/14 08:14:08;;;;;;;20.05;6.90;;;4.70;99.90;;;;;;4948597;29;20070;-78
2024/02/14 08:16:36;;;;;;;24.30;9.98;;;4.90;99.90;;;;;;4928356;29;20055;-78
2024/02/14 08:19:05;;;;;;;23.85;10.05;;;5.00;99.90;;;;;;4933750;29;20035;-79
2024/02/14 08:21:35;;;;;;;20.45;7.68;;;5.00;99.90;;;;;;4932369;29;20053;-79
2024/02/14 08:24:05;;;;;;;17.17;6.38;;;5.10;99.90;;;;;;4928223;29;20080;-79
2024/02/14 08:26:34;;;;;;;21.48;9.15;;;5.30;99.90;;;;;;4925952;29;20083;-78
2024/02/14 08:29:05;;;;;;;15.38;6.00;;;5.50;99.90;;;;;;4949239;29;20071;-79
2024/02/14 08:31:35;;;;;;;13.23;5.13;;;5.00;99.90;;;;;;4949454;29;20112;-78
2024/02/14 08:34:04;;;;;;;12.00;5.18;;;5.60;99.90;;;;;;4947287;29;20043;-77
2024/02/14 08:36:35;;;;;;;10.50;4.80;;;5.60;99.90;;;;;;4936124;29;20111;-80
2024/02/14 08:39:11;;;;;;;13.20;4.95;;;5.70;99.90;;;;;;5455590;23;20042;31
2024/02/14 08:41:43;;;;;;;11.85;3.97;;;5.70;99.90;;;;;;4853028;29;20084;-80
2024/02/14 08:44:13;;;;;;;11.55;4.65;;;5.80;99.90;;;;;;4857046;29;20049;-78
2024/02/14 08:46:44;;;;;;;10.32;4.20;;;5.90;99.90;;;;;;4872340;29;20049;-80
2024/02/14 08:49:13;;;;;;;10.80;4.28;;;6.00;99.90;;;;;;4862005;29;20074;-78
2024/02/14 08:51:43;;;;;;;11.98;4.60;;;6.00;99.90;;;;;;4865262;29;20034;-79
2024/02/14 08:54:13;;;;;;;9.48;4.63;;;6.10;99.90;;;;;;4863526;29;20102;-78
2024/02/14 08:56:42;;;;;;;13.65;6.13;;;6.20;99.90;;;;;;4865030;29;20097;-78
2024/02/14 08:59:12;;;;;;;13.00;6.70;;;6.40;99.90;;;;;;4874896;29;20036;-78
2024/02/14 09:01:41;;;;;;;9.82;5.10;;;6.40;99.90;;;;;;4878673;29;20065;-78
2024/02/14 09:04:10;;;;;;;13.70;5.38;;;6.50;99.90;;;;;;4882495;29;20025;-78
2024/02/14 09:06:40;;;;;;;10.70;5.07;;;6.50;99.90;;;;;;4857394;29;20110;-78
2024/02/14 09:09:10;;;;;;;12.45;5.22;;;6.60;99.90;;;;;;4860565;29;20037;-78
2024/02/14 09:11:40;;;;;;;8.50;4.50;;;6.70;99.90;;;;;;4863971;29;20049;-78
2024/02/14 09:14:11;;;;;;;9.82;3.97;;;6.70;99.90;;;;;;4864464;29;20041;-79
2024/02/14 09:16:41;;;;;;;7.60;2.92;;;6.80;99.90;;;;;;4857749;29;20030;-78
2024/02/14 09:19:12;;;;;;;8.85;3.88;;;6.70;99.90;;;;;;4862956;29;20061;-79
2024/02/14 09:27:47;;;;;;;8.07;3.60;;;7.00;99.90;;;;;;5320942;23;20078;-77
2024/02/14 09:30:17;;;;;;;7.60;3.38;;;7.30;99.90;;;;;;5295181;23;20119;-78
2024/02/14 09:33:00;;;;;;;6.28;2.90;;;7.20;99.90;;;;;;4921022;29;20036;-78
2024/02/14 10:00:11;;;;;;;6.82;2.70;;;7.80;99.30;;;;;;5459293;23;20541;-78
2024/02/14 10:02:39;;;;;;;9.80;4.07;;;8.00;98.60;;;;;;4910595;29;20048;-80
2024/02/14 10:05:08;;;;;;;7.60;3.38;;;8.00;97.90;;;;;;4931189;29;20045;-79
2024/02/14 10:07:42;;;;;;;8.40;3.42;;;8.00;98.20;;;;;;4912352;29;20044;-79
2024/02/14 10:10:12;;;;;;;7.55;3.10;;;8.00;98.10;;;;;;4938166;29;20555;-78
2024/02/14 10:12:41;;;;;;;5.78;3.03;;;8.00;98.60;;;;;;4945937;29;20039;-78
2024/02/14 10:15:11;;;;;;;4.47;2.58;;;8.00;97.30;;;;;;4943111;29;20051;-79
2024/02/14 10:17:41;;;;;;;7.65;2.97;;;8.00;97.70;;;;;;4936457;29;20408;-79
2024/02/14 10:20:11;;;;;;;7.28;3.47;;;8.10;97.10;;;;;;4935092;29;20056;-79
2024/02/14 10:22:40;;;;;;;7.63;3.90;;;8.10;97.60;;;;;;4918325;29;20702;-79
2024/02/14 10:25:10;;;;;;;7.95;3.35;;;8.20;98.10;;;;;;4935231;29;20504;-78
2024/02/14 10:27:40;;;;;;;9.10;2.90;;;8.30;97.50;;;;;;4925887;29;20075;-78
2024/02/14 10:30:11;;;;;;;7.65;3.10;;;8.30;97.40;;;;;;4933100;29;20118;-82
2024/02/14 10:32:40;;;;;;;6.07;2.78;;;8.30;97.40;;;;;;4929233;29;20040;-81
2024/02/14 10:35:11;;;;;;;7.78;3.25;;;8.40;97.60;;;;;;4933183;29;20103;-80
2024/02/14 10:37:41;;;;;;;8.13;3.28;;;8.40;96.70;;;;;;4917536;29;20114;-81
2024/02/14 10:40:10;;;;;;;8.05;3.78;;;8.40;96.90;;;;;;4913990;29;20138;-81
2024/02/14 10:42:38;;;;;;;7.53;2.72;;;8.40;97.10;;;;;;4911801;29;20079;-81
2024/02/14 10:45:08;;;;;;;6.97;2.78;;;8.40;96.80;;;;;;4912163;29;20110;-78
2024/02/14 10:47:43;;;;;;;9.68;3.65;;;8.60;97.20;;;;;;4934234;29;20056;-81
2024/02/14 10:50:14;;;;;;;6.43;3.47;;;8.70;97.10;;;;;;4916180;29;20059;-79
2024/02/14 10:52:43;;;;;;;6.18;2.70;;;8.80;97.20;;;;;;4930153;29;20371;-78
2024/02/14 10:55:13;;;;;;;11.48;3.50;;;8.80;96.60;;;;;;4912436;29;20083;-79
2024/02/14 10:57:43;;;;;;;7.53;2.97;;;8.90;97.60;;;;;;4931321;29;20031;-81
2024/02/14 11:00:18;;;;;;;7.63;3.15;;;8.80;96.30;;;;;;4932323;29;20059;-78
2024/02/14 11:02:49;;;;;;;8.70;2.65;;;8.80;96.10;;;;;;4929338;29;20107;-79
2024/02/14 11:05:23;;;;;;;7.65;3.10;;;8.90;96.20;;;;;;4911199;29;20170;-77
2024/02/14 11:07:56;;;;;;;7.55;3.08;;;8.90;95.60;;;;;;4927602;29;20036;-84
2024/02/14 11:10:24;;;;;;;7.93;2.20;;;9.00;96.00;;;;;;4915776;29;20878;-80
2024/02/14 11:12:55;;;;;;;6.20;2.35;;;9.10;94.50;;;;;;4916312;29;20532;-81
2024/02/14 11:15:25;;;;;;;7.22;2.38;;;9.20;95.00;;;;;;4910683;29;20051;-82
2024/02/14 11:18:07;;;;;;;5.32;2.20;;;9.20;94.70;;;;;;4912649;29;20077;-79
2024/02/14 11:20:37;;;;;;;4.67;2.17;;;9.10;92.60;;;;;;4914208;29;20111;-84
2024/02/14 11:23:10;;;;;;;5.00;2.42;;;9.20;92.90;;;;;;4926643;29;20040;-85
2024/02/14 11:25:40;;;;;;;6.40;2.53;;;9.30;92.90;;;;;;4932012;29;20115;-86
2024/02/14 11:28:16;;;;;;;7.07;3.47;;;9.30;92.90;;;;;;4913402;29;20076;-85
2024/02/14 11:30:45;;;;;;;7.47;3.08;;;9.30;93.20;;;;;;4912295;29;20056;-86
2024/02/14 11:33:17;;;;;;;5.75;2.83;;;9.30;91.90;;;;;;4928801;29;20111;-78
2024/02/14 11:35:49;;;;;;;6.63;2.65;;;9.20;91.70;;;;;;4909332;29;20056;-82
2024/02/14 11:38:18;;;;;;;4.77;2.53;;;9.10;92.10;;;;;;4913318;29;20048;-81
2024/02/14 11:40:51;;;;;;;5.10;2.92;;;9.20;91.60;;;;;;4914523;29;20050;-83
2024/02/14 11:43:24;;;;;;;4.43;2.20;;;9.30;92.30;;;;;;4933150;29;20043;-85
2024/02/14 11:45:53;;;;;;;4.55;2.15;;;9.20;92.20;;;;;;4928669;29;20497;-82
2024/02/14 11:48:23;;;;;;;8.70;4.03;;;9.30;92.00;;;;;;4908216;29;20576;-85
2024/02/14 11:50:55;;;;;;;6.25;2.55;;;9.50;93.10;;;;;;4914452;29;20134;-84
2024/02/14 11:53:25;;;;;;;6.10;2.60;;;9.50;92.70;;;;;;4909698;29;20527;-86
2024/02/14 11:55:56;;;;;;;8.00;2.90;;;9.50;92.60;;;;;;4926938;29;20058;-85
2024/02/14 11:58:25;;;;;;;8.93;4.40;;;9.50;92.70;;;;;;4909956;29;20048;-88
2024/02/14 12:00:55;;;;;;;7.05;3.00;;;9.70;92.80;;;;;;4916201;29;20110;-84
2024/02/14 12:03:25;;;;;;;7.78;3.28;;;9.70;92.70;;;;;;4927814;29;20134;-83
2024/02/14 12:05:56;;;;;;;5.43;2.70;;;9.80;93.40;;;;;;4909395;29;20043;-81
2024/02/14 12:08:25;;;;;;;6.65;3.40;;;9.80;92.30;;;;;;4922315;29;20428;-80
2024/02/14 12:10:55;;;;;;;6.50;2.65;;;9.90;93.50;;;;;;4928557;29;20505;-84
2024/02/14 12:13:25;;;;;;;6.65;2.85;;;10.00;92.90;;;;;;4917941;29;20099;-85
2024/02/14 12:15:54;;;;;;;7.50;3.33;;;9.90;92.30;;;;;;4925601;29;20047;-87
2024/02/14 12:18:26;;;;;;;5.03;2.55;;;9.90;92.30;;;;;;4905060;29;20055;-84
2024/02/14 12:21:07;;;;;;;5.93;3.13;;;10.00;91.50;;;;;;4908109;29;20056;-84
2024/02/14 12:23:38;;;;;;;;;;;9.90;90.90;;;;;;4926524;29;20497;-85
2024/02/14 12:26:06;;;;;;;6.63;3.28;;;10.00;91.70;;;;;;4927986;29;19934;-81
2024/02/14 12:28:36;;;;;;;8.20;3.95;;;10.00;91.50;;;;;;4913460;29;20130;-82
2024/02/14 12:31:05;;;;;;;5.03;2.47;;;9.90;91.10;;;;;;4931691;29;20103;-85
2024/02/14 12:33:35;;;;;;;8.27;3.15;;;10.00;91.90;;;;;;4927688;29;20576;-85
2024/02/14 12:36:04;;;;;;;6.05;2.90;;;10.00;91.20;;;;;;4928186;29;20060;-83
2024/02/14 12:38:36;;;;;;;5.78;2.50;;;10.10;92.70;;;;;;4932769;29;20051;-84
2024/02/14 12:41:06;;;;;;;5.57;2.72;;;10.20;92.10;;;;;;4929921;29;20508;-82
2024/02/14 12:43:36;;;;;;;6.55;2.97;;;10.20;91.70;;;;;;4916861;29;20084;-85
2024/02/14 12:46:05;;;;;;;4.57;2.80;;;10.20;91.10;;;;;;4915862;29;20052;-84
2024/02/14 12:48:36;;;;;;;3.35;2.15;;;10.20;90.90;;;;;;4907647;29;20051;-82
2024/02/14 12:51:05;;;;;;;4.32;1.83;;;10.30;90.50;;;;;;4914887;29;20130;-79
2024/02/14 12:53:34;;;;;;;5.30;2.47;;;10.40;90.20;;;;;;4909985;29;20128;-84
2024/02/14 12:56:04;;;;;;;4.18;2.17;;;10.40;90.60;;;;;;4927095;29;20368;-82
2024/02/14 12:58:33;;;;;;;5.55;1.60;;;10.40;90.30;;;;;;4916543;29;20138;-78
2024/02/14 13:01:05;;;;;;;3.33;0.88;;;10.50;86.10;;;;;;4927245;29;20501;-76
2024/02/14 13:03:36;;;;;;;2.90;0.75;;;10.50;80.70;;;;;;4912038;29;20079;-85
2024/02/14 13:06:06;;;;;;;1.83;0.85;;;10.60;79.30;;;;;;4932237;29;20044;-80
2024/02/14 13:08:35;;;;;;;1.70;0.60;;;10.40;79.40;;;;;;4930174;29;20123;-80
2024/02/14 13:11:04;;;;;;;1.52;0.47;;;10.30;80.20;;;;;;4930315;29;20050;-84
2024/02/14 13:13:36;;;;;;;2.10;0.60;;;10.20;78.00;;;;;;4931636;29;20079;-79
2024/02/14 13:16:07;;;;;;;1.13;0.57;;;10.10;79.00;;;;;;4927564;29;20048;-81
2024/02/14 13:18:37;;;;;;;1.85;0.80;;;10.10;79.80;;;;;;4933729;29;20087;-84
2024/02/14 13:21:06;;;;;;;2.65;0.65;;;10.10;79.80;;;;;;4917876;29;20072;-85
2024/02/14 13:23:35;;;;;;;2.65;0.85;;;10.00;79.30;;;;;;4912544;29;20115;-84
2024/02/14 13:26:03;;;;;;;2.55;1.00;;;10.00;80.40;;;;;;4913985;29;20063;-81
2024/02/14 13:28:32;;;;;;;1.33;0.63;;;10.00;80.30;;;;;;4911653;29;20063;-79
2024/02/14 13:31:01;;;;;;;4.30;1.00;;;10.00;78.70;;;;;;4930743;29;20055;-82
2024/02/14 13:33:29;;;;;;;3.42;0.70;;;10.00;78.60;;;;;;4932179;29;20050;-81
2024/02/14 13:35:59;;;;;;;2.13;1.00;;;10.00;78.90;;;;;;4929222;29;20044;-80